METAR AND TAF INFORMATION
METAR FOR SEGS
ADDS - METARS form results

(1341 UTC 18 November 2019)
Data provider http://aviationweather.gov/metar/data/
 
METAR text: SEGS 181300Z 17010KT 9999 BKN020 22/16 Q1012 A2991
Conditions at: SEGS (SAN CRISTOBAL , EC) observed 1300 UTC 18 November 2019
Temperature: 22.0°C (72°F)
Dewpoint: 16.0°C (61°F) [RH = 69%]
Pressure (altimeter): 29.88 inches Hg (1012.0 mb)
Winds: from the S (170 degrees) at 12 MPH (10 knots; 5.1 m/s)
Visibility: 6 or more miles (10+ km)
Ceiling: 2000 feet AGL
Clouds: broken clouds at 2000 feet AGL
Weather: no significant weather observed at this time

 AIRPORT MAP

 RUNWAY INFORMATION
Runway 14 Runway length 7876 ft Runway width 115 ft
Runway elevation 145 ft Runway displaced threshold 0 ft Runway heading 144
Runway 32 Runway length 7876 ft Runway width 115 ft
Runway elevation 207 ft Runway displaced threshold 0 ft Runway heading 324

 AIRPORT FREQUENCIES
Type TWR Name TWR Frequency 122.2 MHZ

 AIRPORT NEAR NAVIGATION AIDS
Type NDB Name Galapagos Frequency 272 KHZ
Type VOR-DME Name Galapagos Frequency 112300 KHZ



Powered by Virtual Airlines Manager [v2.6.2]